Time;durP1;ratioP1;P1;durP2;ratioP2;P2;SDS_P1;SDS_P2;PMS_P1;PMS_P2;Temp;Humidity;BMP_temperature;BMP_pressure;BME280_temperature;BME280_humidity;BME280_pressure;Samples;Min_cycle;Max_cycle;Signal;HPM_P1;HPM_P2
2023/01/09 05:01:44;;;;;;;0.30;0.30;;;4.80;99.90;;;;;;5058629;28;20260;-76
2023/01/09 05:04:11;;;;;;;0.40;0.40;;;4.80;99.90;;;;;;5057650;28;20794;-77
2023/01/09 05:06:38;;;;;;;1.55;0.50;;;4.90;99.90;;;;;;5056827;28;20200;-77
2023/01/09 05:09:05;;;;;;;0.50;0.50;;;4.90;99.90;;;;;;5056812;28;20228;-76
2023/01/09 05:11:32;;;;;;;0.40;0.40;;;4.80;99.90;;;;;;5056736;28;20230;-76
2023/01/09 05:13:59;;;;;;;0.40;0.40;;;4.80;99.90;;;;;;5056463;28;20257;-76
2023/01/09 05:16:25;;;;;;;0.50;0.50;;;4.70;99.90;;;;;;5056673;28;20208;-76
2023/01/09 05:21:21;;;;;;;0.55;0.50;;;4.60;99.90;;;;;;4996286;28;20214;-77
2023/01/09 05:23:48;;;;;;;0.40;0.40;;;4.60;99.90;;;;;;4999065;28;20230;-77
2023/01/09 05:26:15;;;;;;;0.50;0.50;;;4.60;99.90;;;;;;5001210;28;20203;-77
2023/01/09 05:28:41;;;;;;;0.73;0.73;;;4.50;99.90;;;;;;5003169;28;20206;-77
2023/01/09 05:31:08;;;;;;;1.92;0.60;;;4.40;99.90;;;;;;5017488;28;20222;-76
2023/01/09 05:33:35;;;;;;;0.40;0.40;;;4.30;99.90;;;;;;5017131;28;20210;-76
2023/01/09 05:36:01;;;;;;;0.55;0.55;;;4.30;99.90;;;;;;5015835;28;20551;-77
2023/01/09 05:38:29;;;;;;;0.65;0.65;;;4.20;99.90;;;;;;5017577;28;20209;-76
2023/01/09 05:40:56;;;;;;;0.50;0.50;;;4.00;99.90;;;;;;5017572;28;20225;-77
2023/01/09 05:43:23;;;;;;;0.70;0.70;;;3.90;99.90;;;;;;5016813;28;20589;-76
2023/01/09 05:45:49;;;;;;;0.60;0.60;;;3.80;99.90;;;;;;5017487;28;20206;-77
2023/01/09 05:48:16;;;;;;;0.75;0.75;;;3.70;99.90;;;;;;5017087;28;20209;-72
2023/01/09 05:50:43;;;;;;;3.40;0.50;;;3.80;99.90;;;;;;5016347;28;20230;-73
2023/01/09 05:53:10;;;;;;;0.40;0.40;;;3.80;99.90;;;;;;5016797;28;20205;-76
2023/01/09 05:55:38;;;;;;;0.50;0.50;;;3.70;99.90;;;;;;5016370;28;20206;-75
2023/01/09 05:58:05;;;;;;;0.50;0.50;;;3.70;99.90;;;;;;5016336;28;20212;-76
2023/01/09 06:00:31;;;;;;;1.38;0.60;;;3.60;99.90;;;;;;5016282;28;20222;-77
2023/01/09 06:02:59;;;;;;;0.75;0.50;;;3.60;99.90;;;;;;5018634;28;20225;-79
2023/01/09 06:05:25;;;;;;;0.52;0.52;;;3.50;99.90;;;;;;5022959;28;20213;-78
2023/01/09 06:07:52;;;;;;;0.60;0.60;;;3.30;99.90;;;;;;5018374;28;20210;-77
2023/01/09 06:10:19;;;;;;;0.50;0.50;;;3.20;99.90;;;;;;5015924;28;20727;-78
2023/01/09 11:59:54;;;;;;;2.03;1.90;;;5.70;99.90;;;;;;6005776;23;20176;-72
2023/01/09 12:03:04;;;;;;;2.65;1.10;;;5.70;99.90;;;;;;5033872;28;20309;-75
2023/01/09 12:05:36;;;;;;;4.05;0.90;;;5.70;99.90;;;;;;4972928;28;20666;-75
2023/01/09 12:08:20;;;;;;;0.77;0.75;;;5.70;99.90;;;;;;5021556;28;20214;-72
2023/01/09 12:11:03;;;;;;;1.48;0.88;;;5.50;99.90;;;;;;5033607;28;20603;-71
2023/01/09 12:13:48;;;;;;;2.03;0.70;;;5.30;99.90;;;;;;5033831;28;20521;-72
2023/01/09 12:16:26;;;;;;;4.00;0.95;;;5.20;99.90;;;;;;5033873;28;20189;-72
2023/01/09 12:19:09;;;;;;;4.20;0.90;;;5.10;99.90;;;;;;5033945;28;20189;-71
2023/01/09 12:21:41;;;;;;;1.33;0.70;;;5.00;99.90;;;;;;5034505;28;20185;-71
2023/01/09 12:24:33;;;;;;;1.10;0.50;;;4.90;99.90;;;;;;5034129;28;20213;-71
2023/01/09 12:27:14;;;;;;;0.75;0.70;;;4.90;99.90;;;;;;5033751;28;20185;-71
2023/01/09 12:30:04;;;;;;;1.40;0.85;;;4.80;99.90;;;;;;5034021;28;20228;-71
2023/01/09 12:32:43;;;;;;;1.00;0.85;;;4.80;99.90;;;;;;5034141;28;20186;-71
2023/01/09 12:35:24;;;;;;;1.58;0.70;;;4.70;99.90;;;;;;5034036;28;20210;-71
2023/01/09 12:38:09;;;;;;;1.70;0.70;;;4.60;99.90;;;;;;5033903;28;20189;-71
2023/01/09 12:40:59;;;;;;;3.30;0.80;;;4.50;99.90;;;;;;5033693;28;20217;-71
2023/01/09 12:43:34;;;;;;;0.70;0.70;;;4.60;99.90;;;;;;5033696;28;20216;-71
2023/01/09 12:46:13;;;;;;;0.60;0.60;;;4.60;99.90;;;;;;5034058;28;20192;-71
2023/01/09 12:48:53;;;;;;;1.15;0.70;;;4.60;99.90;;;;;;5037513;28;20625;-72
2023/01/09 12:51:30;;;;;;;0.63;0.63;;;4.60;99.90;;;;;;5037456;28;20579;-71
2023/01/09 12:54:02;;;;;;;0.50;0.50;;;4.60;99.90;;;;;;5037237;28;20637;-71
2023/01/09 12:56:33;;;;;;;1.25;0.60;;;4.70;99.90;;;;;;5037228;28;20221;-71
2023/01/09 12:59:07;;;;;;;0.93;0.55;;;4.80;99.90;;;;;;5037446;28;20185;-71
2023/01/09 13:01:41;;;;;;;0.55;0.50;;;4.90;99.90;;;;;;5037332;28;20190;-71
2023/01/09 13:04:15;;;;;;;0.80;0.68;;;5.00;99.90;;;;;;5036747;28;20205;-71
2023/01/09 13:06:48;;;;;;;0.47;0.47;;;5.00;99.90;;;;;;5037465;28;20186;-72
2023/01/09 13:09:26;;;;;;;0.50;0.50;;;5.00;99.90;;;;;;5037343;28;20225;-70
2023/01/09 13:12:02;;;;;;;1.90;0.60;;;5.10;99.90;;;;;;5037053;28;20185;-70
2023/01/09 13:14:40;;;;;;;0.75;0.40;;;5.20;99.90;;;;;;5037069;28;20652;-71
2023/01/09 13:17:13;;;;;;;1.27;0.88;;;5.20;99.90;;;;;;5037428;28;20595;-71
2023/01/09 13:19:40;;;;;;;0.63;0.63;;;5.20;99.90;;;;;;5037202;28;20231;-72
2023/01/09 13:22:11;;;;;;;0.70;0.70;;;5.30;99.90;;;;;;5036701;28;20677;-71
2023/01/09 13:24:49;;;;;;;0.45;0.45;;;5.30;99.90;;;;;;5036821;28;20205;-71
2023/01/09 13:27:19;;;;;;;0.57;0.50;;;5.30;99.90;;;;;;5036915;28;20193;-70
2023/01/09 13:29:50;;;;;;;0.57;0.57;;;5.30;99.90;;;;;;5036915;28;20229;-70
2023/01/09 13:32:41;;;;;;;1.42;1.00;;;5.30;99.90;;;;;;5036759;28;20192;-70
2023/01/09 13:35:13;;;;;;;0.65;0.50;;;5.40;99.90;;;;;;5036686;28;20226;-70
2023/01/09 13:37:42;;;;;;;0.85;0.70;;;5.60;99.90;;;;;;5036532;28;20190;-71
2023/01/09 13:40:28;;;;;;;1.17;0.40;;;5.60;99.90;;;;;;5036362;28;20244;-71
2023/01/09 13:42:56;;;;;;;0.95;0.50;;;5.40;99.90;;;;;;5036252;28;20656;-71
2023/01/09 13:45:25;;;;;;;1.75;1.13;;;5.30;99.90;;;;;;5036432;28;20205;-71
2023/01/09 13:48:38;;;;;;;0.60;0.60;;;5.30;99.90;;;;;;5036476;28;20190;-73
2023/01/09 13:51:57;;;;;;;0.75;0.52;;;5.40;99.90;;;;;;5036276;28;20229;-73
2023/01/09 13:55:04;;;;;;;0.73;0.73;;;5.30;99.90;;;;;;5036300;28;20256;-72
2023/01/09 13:57:34;;;;;;;0.50;0.50;;;5.20;99.90;;;;;;5035719;28;20567;-73
2023/01/09 14:00:38;;;;;;;0.75;0.50;;;5.20;99.90;;;;;;5035749;28;20727;-73
2023/01/09 14:03:17;;;;;;;1.38;1.25;;;5.10;99.90;;;;;;5035899;28;20224;-74
2023/01/09 14:06:18;;;;;;;1.02;0.57;;;5.40;99.90;;;;;;5036326;28;20209;-74
2023/01/09 14:08:50;;;;;;;1.13;0.68;;;5.30;99.90;;;;;;5036011;28;20185;-73
2023/01/09 14:11:26;;;;;;;1.05;0.90;;;5.20;99.90;;;;;;5036032;28;20201;-73
2023/01/09 14:14:21;;;;;;;1.05;1.00;;;5.10;99.90;;;;;;5035910;28;20208;-73
2023/01/09 14:16:48;;;;;;;2.42;1.00;;;5.00;99.90;;;;;;5031092;28;20232;-74
2023/01/09 14:19:31;;;;;;;0.75;0.70;;;5.00;99.90;;;;;;5035274;28;20819;-75
2023/01/09 14:21:59;;;;;;;0.73;0.70;;;4.90;99.90;;;;;;5037111;28;20193;-73
2023/01/09 14:24:40;;;;;;;1.05;0.70;;;5.00;99.90;;;;;;5038131;28;20722;-74
2023/01/09 14:27:51;;;;;;;0.93;0.90;;;4.90;99.90;;;;;;5039008;28;20197;-73
2023/01/09 14:30:33;;;;;;;2.55;0.80;;;4.80;99.90;;;;;;5038258;28;20221;-73
2023/01/09 14:33:02;;;;;;;1.35;0.88;;;4.60;99.90;;;;;;5038058;28;20185;-73
2023/01/09 14:35:39;;;;;;;3.95;0.70;;;4.50;99.90;;;;;;5036894;28;20228;-73
2023/01/09 14:38:16;;;;;;;0.98;0.80;;;4.50;99.90;;;;;;5039745;28;20189;-71
2023/01/09 14:40:48;;;;;;;1.33;0.70;;;4.40;99.90;;;;;;5039017;28;20225;-71
2023/01/09 14:43:26;;;;;;;3.25;0.90;;;4.30;99.90;;;;;;5038708;28;20205;-71
2023/01/09 14:45:59;;;;;;;0.70;0.70;;;4.30;99.90;;;;;;5039477;28;20235;-73
2023/01/09 14:48:27;;;;;;;3.92;0.70;;;4.20;99.90;;;;;;5040417;28;20190;-72
2023/01/09 14:50:57;;;;;;;1.08;0.82;;;4.10;99.90;;;;;;5036662;28;20217;-72
2023/01/09 14:53:26;;;;;;;0.85;0.80;;;4.10;99.90;;;;;;5037036;28;20284;-72
2023/01/09 14:55:56;;;;;;;2.72;0.50;;;4.00;99.90;;;;;;5037596;28;20197;-73
2023/01/09 14:58:27;;;;;;;0.60;0.60;;;4.00;99.90;;;;;;5037368;28;20201;-73
2023/01/09 15:01:01;;;;;;;1.30;0.60;;;3.90;99.90;;;;;;5038186;28;20228;-72
2023/01/09 15:03:32;;;;;;;1.38;0.70;;;3.80;99.90;;;;;;5037311;28;20232;-72
2023/01/09 15:06:00;;;;;;;1.05;0.90;;;3.70;99.90;;;;;;5034653;28;20560;-74
2023/01/09 15:08:28;;;;;;;1.27;0.70;;;3.70;99.90;;;;;;5034356;28;20208;-73
2023/01/09 15:10:57;;;;;;;0.47;0.47;;;3.60;99.90;;;;;;5034262;28;20236;-73
2023/01/09 15:13:32;;;;;;;1.95;0.63;;;3.60;99.90;;;;;;5034453;28;20224;-74
2023/01/09 15:16:00;;;;;;;0.75;0.52;;;3.60;99.90;;;;;;5034459;28;20189;-74
2023/01/09 15:18:30;;;;;;;1.63;0.63;;;3.50;99.90;;;;;;5034430;28;20232;-73
2023/01/09 15:21:00;;;;;;;1.25;1.08;;;3.60;99.90;;;;;;5034587;28;20222;-74
2023/01/09 15:23:29;;;;;;;1.33;0.90;;;3.50;99.90;;;;;;5034364;28;20188;-75
2023/01/09 15:25:56;;;;;;;0.82;0.82;;;3.50;99.90;;;;;;5034526;28;20205;-75
2023/01/09 15:28:32;;;;;;;0.73;0.73;;;3.40;99.90;;;;;;5034265;28;20205;-75
2023/01/09 15:31:06;;;;;;;1.00;1.00;;;3.40;99.90;;;;;;5034100;28;20225;-75
2023/01/09 15:33:34;;;;;;;0.60;0.60;;;3.30;99.90;;;;;;5033789;28;20276;-75
2023/01/09 15:36:04;;;;;;;0.95;0.70;;;3.10;99.90;;;;;;5034015;28;20205;-75
2023/01/09 15:38:34;;;;;;;1.02;1.02;;;3.10;99.90;;;;;;5034049;28;20197;-75
2023/01/09 15:41:07;;;;;;;1.27;1.25;;;3.00;99.90;;;;;;5033860;28;20225;-76
2023/01/09 15:43:42;;;;;;;1.30;1.30;;;2.80;99.90;;;;;;5033905;28;20217;-76
2023/01/09 15:46:10;;;;;;;3.95;1.92;;;2.70;99.90;;;;;;5034166;28;20189;-76
2023/01/09 15:48:37;;;;;;;3.38;1.48;;;2.60;99.90;;;;;;5034017;28;20205;-76
2023/01/09 15:51:09;;;;;;;1.50;1.40;;;2.50;99.90;;;;;;5033848;28;20225;-74
2023/01/09 15:53:36;;;;;;;1.98;1.58;;;2.30;99.90;;;;;;5033862;28;20708;-75
2023/01/09 15:56:05;;;;;;;1.40;1.40;;;2.30;99.90;;;;;;5033899;28;20201;-74
2023/01/09 15:58:36;;;;;;;1.88;1.63;;;2.20;99.90;;;;;;5033847;28;20208;-73
2023/01/09 16:01:06;;;;;;;1.75;1.65;;;2.10;99.90;;;;;;5033806;28;20236;-73
2023/01/09 16:03:37;;;;;;;1.60;1.23;;;2.00;99.90;;;;;;5033567;28;20209;-74
2023/01/09 16:06:08;;;;;;;1.75;1.40;;;1.90;99.90;;;;;;5034141;28;20217;-74
2023/01/09 16:08:38;;;;;;;3.22;2.90;;;1.80;99.90;;;;;;5034185;28;20181;-75
2023/01/09 16:11:08;;;;;;;1.70;1.60;;;1.80;99.90;;;;;;5033731;28;20596;-75
2023/01/09 16:13:41;;;;;;;1.85;1.55;;;1.80;99.90;;;;;;5034067;28;20205;-74
2023/01/09 16:16:09;;;;;;;0.98;0.98;;;1.70;99.90;;;;;;5034097;28;20240;-75
2023/01/09 16:18:38;;;;;;;1.42;1.33;;;1.70;99.90;;;;;;5033930;28;20572;-75
2023/01/09 16:21:22;;;;;;;1.95;1.35;;;1.70;99.90;;;;;;5037670;28;20225;-74
2023/01/09 16:23:57;;;;;;;2.67;2.40;;;1.70;99.90;;;;;;5040730;28;20205;-74
2023/01/09 16:26:26;;;;;;;2.70;2.15;;;1.80;99.90;;;;;;5040578;28;20230;-75
2023/01/09 16:28:55;;;;;;;2.55;2.40;;;1.80;99.90;;;;;;5040564;28;20552;-74
2023/01/09 16:31:25;;;;;;;2.33;2.08;;;1.90;99.90;;;;;;5040543;28;20205;-76
2023/01/09 16:33:58;;;;;;;2.35;2.25;;;1.90;99.90;;;;;;5040646;28;20203;-76
2023/01/09 16:36:26;;;;;;;2.03;1.88;;;1.90;99.90;;;;;;5040577;28;20189;-78
2023/01/09 16:38:53;;;;;;;1.95;1.75;;;1.80;99.90;;;;;;5040918;28;20292;-76
2023/01/09 16:44:09;;;;;;;5.43;2.60;;;1.80;99.90;;;;;;5040475;28;20710;-73
2023/01/09 16:46:38;;;;;;;6.78;5.90;;;1.80;99.90;;;;;;5040448;28;20651;-74
2023/01/09 16:49:13;;;;;;;8.98;6.22;;;1.90;99.90;;;;;;5040297;28;20202;-76
2023/01/09 16:51:40;;;;;;;16.27;10.32;;;1.90;99.90;;;;;;5040272;28;20208;-75
2023/01/09 16:54:07;;;;;;;18.15;12.63;;;1.90;99.90;;;;;;5040472;28;20213;-76
2023/01/09 16:56:35;;;;;;;24.25;13.98;;;2.00;99.90;;;;;;5040660;28;20208;-76
2023/01/09 16:59:02;;;;;;;11.48;7.72;;;2.00;99.90;;;;;;5040146;28;20216;-76
2023/01/09 17:01:30;;;;;;;7.65;5.10;;;2.10;99.90;;;;;;5040253;28;20212;-76
2023/01/09 17:03:57;;;;;;;5.57;4.35;;;2.10;99.90;;;;;;5042354;28;20185;-75
2023/01/09 17:06:28;;;;;;;8.35;7.38;;;2.10;99.90;;;;;;5043772;28;20710;-77
2023/01/09 17:08:55;;;;;;;11.95;8.20;;;2.10;99.90;;;;;;5042801;28;20272;-76
2023/01/09 17:11:28;;;;;;;6.05;5.30;;;2.10;99.90;;;;;;5040915;28;20209;-76
2023/01/09 17:13:55;;;;;;;5.00;4.10;;;2.10;99.90;;;;;;5040238;28;20182;-76
2023/01/09 17:16:22;;;;;;;2.97;2.88;;;2.00;99.90;;;;;;5039715;28;20664;-77
2023/01/09 17:18:51;;;;;;;2.00;1.80;;;2.00;99.90;;;;;;5040153;28;20566;-73
2023/01/09 17:21:20;;;;;;;2.58;2.35;;;1.90;99.90;;;;;;5040743;28;20221;-77
2023/01/09 17:23:47;;;;;;;1.95;1.80;;;1.80;99.90;;;;;;5039988;28;20204;-75
2023/01/09 17:29:19;;;;;;;1.35;0.95;;;1.80;99.90;;;;;;4999378;28;20218;-79
2023/01/09 17:31:46;;;;;;;1.30;0.80;;;1.70;99.90;;;;;;4996701;28;20207;-77
2023/01/09 17:34:14;;;;;;;1.55;1.08;;;1.80;99.90;;;;;;5013408;28;20197;-77
2023/01/09 17:36:40;;;;;;;0.93;0.93;;;1.70;99.90;;;;;;5036935;28;20664;-79
2023/01/09 17:39:07;;;;;;;0.98;0.75;;;1.70;99.90;;;;;;5037127;28;20585;-79
2023/01/09 17:41:34;;;;;;;0.70;0.70;;;1.70;99.90;;;;;;5036882;28;20213;-77
2023/01/09 17:44:00;;;;;;;1.17;0.88;;;1.70;99.90;;;;;;5036805;28;20208;-77
2023/01/09 17:46:30;;;;;;;1.85;1.00;;;1.70;99.90;;;;;;5037039;28;20201;-79
2023/01/09 17:48:57;;;;;;;1.05;0.95;;;1.70;99.90;;;;;;5037395;28;20201;-75
2023/01/09 17:51:25;;;;;;;3.50;2.83;;;1.60;99.90;;;;;;5036315;28;20691;-74
2023/01/09 17:53:52;;;;;;;10.27;4.68;;;1.60;99.90;;;;;;5036788;28;20205;-74
2023/01/09 17:56:22;;;;;;;6.13;3.00;;;1.60;99.90;;;;;;5036559;28;20204;-74
2023/01/09 17:58:49;;;;;;;3.80;2.38;;;1.50;99.90;;;;;;5036749;28;20192;-75
2023/01/09 18:01:18;;;;;;;2.30;1.98;;;1.40;99.90;;;;;;5036451;28;20197;-72
2023/01/09 18:03:47;;;;;;;2.80;1.52;;;1.40;99.90;;;;;;5036334;28;20202;-73
2023/01/09 18:06:15;;;;;;;3.55;2.10;;;1.30;99.90;;;;;;5036430;28;20224;-73
2023/01/09 18:08:44;;;;;;;1.75;1.48;;;1.30;99.90;;;;;;5036369;28;20584;-72
2023/01/09 18:11:16;;;;;;;3.35;2.20;;;1.30;99.90;;;;;;5035895;28;20217;-73
2023/01/09 18:13:42;;;;;;;1.75;1.27;;;1.30;99.90;;;;;;5036093;28;20202;-74
2023/01/09 18:16:09;;;;;;;2.50;1.38;;;1.30;99.90;;;;;;5036306;28;20182;-73
2023/01/09 18:18:37;;;;;;;1.85;1.75;;;1.30;99.90;;;;;;5035788;28;20212;-73
2023/01/09 18:21:04;;;;;;;2.63;2.28;;;1.30;99.90;;;;;;5036104;28;20229;-72
2023/01/09 18:23:31;;;;;;;2.28;1.80;;;1.40;99.90;;;;;;5036175;28;20331;-73
2023/01/09 18:25:59;;;;;;;3.92;2.05;;;1.50;99.90;;;;;;5035794;28;20221;-73
2023/01/09 18:28:26;;;;;;;1.70;1.60;;;1.50;99.90;;;;;;5035551;28;20205;-73
2023/01/09 18:30:52;;;;;;;1.50;1.13;;;1.60;99.90;;;;;;5035611;28;20592;-71
2023/01/09 18:33:19;;;;;;;1.65;1.55;;;1.50;99.90;;;;;;5035309;28;20201;-73
2023/01/09 18:35:46;;;;;;;1.90;1.23;;;1.50;99.90;;;;;;5035293;28;20212;-73
2023/01/09 18:38:13;;;;;;;0.90;0.90;;;1.60;99.90;;;;;;5035604;28;20205;-75
2023/01/09 18:40:40;;;;;;;0.93;0.93;;;1.60;99.90;;;;;;5035327;28;20225;-73
2023/01/09 18:43:10;;;;;;;0.90;0.90;;;1.60;99.90;;;;;;5035115;28;20197;-73
2023/01/09 18:45:37;;;;;;;1.20;1.05;;;1.60;99.90;;;;;;5034659;28;20249;-72
2023/01/09 18:48:05;;;;;;;1.20;1.20;;;1.60;99.90;;;;;;5034956;28;20668;-73
2023/01/09 18:50:31;;;;;;;1.20;1.10;;;1.60;99.90;;;;;;5036720;28;20267;-73
2023/01/09 18:52:59;;;;;;;1.02;1.02;;;1.60;99.90;;;;;;5035606;28;20213;-75
2023/01/09 18:55:26;;;;;;;1.30;1.30;;;1.70;99.90;;;;;;5035685;28;20284;-74
2023/01/09 18:57:54;;;;;;;2.20;1.23;;;1.70;99.90;;;;;;5036130;28;20291;-76
2023/01/09 19:00:23;;;;;;;0.90;0.90;;;1.80;99.90;;;;;;5036112;28;20225;-73
2023/01/09 19:02:49;;;;;;;1.08;1.08;;;1.80;99.90;;;;;;5035048;28;20228;-73
2023/01/09 19:05:16;;;;;;;0.95;0.95;;;1.70;99.90;;;;;;5035020;28;20300;-74
2023/01/09 19:07:43;;;;;;;1.23;1.20;;;1.70;99.90;;;;;;5034802;28;20571;-74
2023/01/09 19:10:11;;;;;;;1.20;1.20;;;1.70;99.90;;;;;;5035111;28;20228;-73
2023/01/09 19:12:37;;;;;;;0.70;0.70;;;1.70;99.90;;;;;;5036054;28;20210;-74
2023/01/09 19:15:10;;;;;;;0.85;0.85;;;1.70;99.90;;;;;;5035281;28;20522;-74
2023/01/09 19:17:38;;;;;;;1.67;0.95;;;1.70;99.90;;;;;;5034761;28;20546;-73
2023/01/09 19:20:06;;;;;;;4.05;3.55;;;1.80;99.90;;;;;;5035387;28;20251;-75
2023/01/09 19:22:33;;;;;;;3.88;3.50;;;1.70;99.90;;;;;;5041716;28;20202;-72
2023/01/09 19:25:00;;;;;;;4.88;3.50;;;1.70;99.90;;;;;;5034814;28;20229;-73
2023/01/09 19:27:28;;;;;;;3.75;3.03;;;1.70;99.90;;;;;;5034707;28;20206;-73
2023/01/09 19:29:55;;;;;;;2.65;2.20;;;1.60;99.90;;;;;;5034845;28;20221;-73
2023/01/09 19:32:21;;;;;;;1.63;1.55;;;1.60;99.90;;;;;;5034745;28;20205;-73
2023/01/09 19:34:50;;;;;;;2.17;2.03;;;1.60;99.90;;;;;;5060224;23;20228;-77
2023/01/09 19:37:17;;;;;;;4.78;4.18;;;1.70;99.90;;;;;;5035269;28;20224;-75
2023/01/09 19:39:45;;;;;;;2.72;2.53;;;1.60;99.90;;;;;;5041671;28;20205;-78
2023/01/09 19:42:12;;;;;;;3.28;2.75;;;1.70;99.90;;;;;;5037407;28;20201;-77
2023/01/09 19:44:39;;;;;;;4.40;3.20;;;1.80;99.90;;;;;;5034367;28;20225;-78
2023/01/09 19:47:05;;;;;;;1.50;1.50;;;1.70;99.90;;;;;;5033974;28;20208;-77
2023/01/09 19:49:32;;;;;;;1.63;1.52;;;1.70;99.90;;;;;;5033810;28;20691;-77
2023/01/09 19:52:00;;;;;;;1.55;1.45;;;1.70;99.90;;;;;;5033866;28;20228;-77
2023/01/09 19:54:28;;;;;;;1.55;1.40;;;1.80;99.90;;;;;;5033878;28;20221;-78
2023/01/09 19:56:54;;;;;;;5.28;3.05;;;1.80;99.90;;;;;;5033686;28;20193;-76
2023/01/09 19:59:21;;;;;;;4.00;3.60;;;1.80;99.90;;;;;;5033716;28;20198;-76
2023/01/09 20:01:48;;;;;;;12.20;7.00;;;1.80;99.90;;;;;;5033885;28;20205;-76
2023/01/09 20:04:16;;;;;;;7.70;5.78;;;1.80;99.90;;;;;;5033578;28;20692;-77
2023/01/09 20:06:45;;;;;;;8.05;5.47;;;1.80;99.90;;;;;;5033701;28;20267;-77
2023/01/09 20:09:14;;;;;;;3.45;3.15;;;1.80;99.90;;;;;;5033603;28;20197;-77
2023/01/09 20:11:43;;;;;;;10.68;5.47;;;1.80;99.90;;;;;;5034289;28;20208;-77
2023/01/09 20:14:11;;;;;;;7.00;4.35;;;1.80;99.90;;;;;;5033733;28;20229;-77
2023/01/09 20:16:38;;;;;;;6.13;4.00;;;1.80;99.90;;;;;;5034080;28;20288;-77
2023/01/09 20:19:07;;;;;;;7.97;4.88;;;1.80;99.90;;;;;;5035158;28;20233;-77
2023/01/09 20:21:35;;;;;;;3.50;2.40;;;1.90;99.90;;;;;;5034884;28;20269;-77
2023/01/09 20:24:04;;;;;;;2.47;1.90;;;1.90;99.90;;;;;;5033344;28;20221;-76
2023/01/09 20:26:32;;;;;;;1.42;1.27;;;1.80;99.90;;;;;;5033523;28;20271;-76
2023/01/09 20:28:59;;;;;;;1.83;1.73;;;1.80;99.90;;;;;;5033639;28;20679;-77
2023/01/09 20:31:29;;;;;;;1.60;1.10;;;1.80;99.90;;;;;;5034213;28;20205;-77
2023/01/09 20:33:57;;;;;;;1.60;1.17;;;1.80;99.90;;;;;;5035952;28;20234;-77
2023/01/09 20:36:26;;;;;;;1.08;1.00;;;1.80;99.90;;;;;;5041568;28;20197;-77
2023/01/09 20:38:53;;;;;;;2.78;1.05;;;1.80;99.90;;;;;;5033437;28;20212;-77
2023/01/09 20:41:22;;;;;;;0.85;0.85;;;1.80;99.90;;;;;;5033669;28;20263;-77
2023/01/09 20:43:51;;;;;;;1.02;1.02;;;1.80;99.90;;;;;;5034455;28;20225;-78
2023/01/09 20:46:18;;;;;;;2.17;1.30;;;1.70;99.90;;;;;;5042066;28;20221;-79
2023/01/09 20:48:45;;;;;;;3.63;2.10;;;1.80;99.90;;;;;;5037465;28;20570;-77
2023/01/09 20:51:12;;;;;;;1.35;1.25;;;1.80;99.90;;;;;;5036891;28;20205;-78
2023/01/09 20:53:38;;;;;;;0.60;0.60;;;1.80;99.90;;;;;;5038437;28;20711;-78
2023/01/09 20:56:08;;;;;;;0.70;0.70;;;1.80;99.90;;;;;;5039845;28;20201;-78
2023/01/09 20:58:35;;;;;;;0.88;0.88;;;1.80;99.90;;;;;;5039257;28;20209;-78
2023/01/09 21:01:06;;;;;;;1.15;1.10;;;1.80;99.90;;;;;;5041947;28;20205;-79
2023/01/09 21:03:33;;;;;;;0.93;0.93;;;1.80;99.90;;;;;;5044798;28;20225;-79
2023/01/09 21:06:04;;;;;;;1.00;1.00;;;1.80;99.90;;;;;;5040380;28;20689;-78
2023/01/09 21:08:31;;;;;;;0.90;0.90;;;1.80;99.90;;;;;;5044207;28;20196;-79
2023/01/09 21:10:58;;;;;;;0.85;0.85;;;1.80;99.90;;;;;;5043074;28;20216;-78
2023/01/09 21:13:25;;;;;;;1.20;1.10;;;1.90;99.90;;;;;;5046325;28;20208;-79
2023/01/09 21:15:52;;;;;;;0.95;0.80;;;1.90;99.90;;;;;;5051323;28;20201;-79
2023/01/09 21:18:20;;;;;;;1.23;1.00;;;1.90;99.90;;;;;;5045175;28;20207;-79
2023/01/09 21:20:48;;;;;;;2.25;1.17;;;1.90;99.90;;;;;;5048328;28;20204;-78
2023/01/09 21:23:15;;;;;;;2.33;1.10;;;1.90;99.90;;;;;;5049424;28;20228;-79
2023/01/09 21:25:43;;;;;;;0.98;0.98;;;1.90;99.90;;;;;;5043640;28;20228;-78
2023/01/09 21:28:13;;;;;;;1.23;1.23;;;1.80;99.90;;;;;;5041545;28;20615;-78
2023/01/09 21:30:39;;;;;;;1.55;1.55;;;1.80;99.90;;;;;;5043393;28;20205;-78
2023/01/09 21:33:06;;;;;;;1.52;1.42;;;1.80;99.90;;;;;;5038733;28;20571;-77
2023/01/09 21:35:34;;;;;;;1.38;1.38;;;1.80;99.90;;;;;;5038850;28;20231;-76
2023/01/09 21:38:01;;;;;;;1.58;1.58;;;1.90;99.90;;;;;;5038409;28;20267;-77
2023/01/09 21:40:28;;;;;;;1.30;1.20;;;1.90;99.90;;;;;;5038369;28;20292;-77
2023/01/09 21:48:24;;;;;;;0.80;0.80;;;1.90;99.90;;;;;;5043879;28;20200;-78
2023/01/09 21:50:52;;;;;;;0.90;0.90;;;1.90;99.90;;;;;;5045525;28;20205;-79
2023/01/09 21:53:19;;;;;;;1.20;1.20;;;2.00;99.90;;;;;;5047159;28;20197;-79
2023/01/09 21:55:46;;;;;;;1.10;1.10;;;2.00;99.90;;;;;;5040545;28;20225;-79
2023/01/09 21:58:12;;;;;;;1.55;1.30;;;2.00;99.90;;;;;;5039637;28;20201;-79
2023/01/09 22:00:39;;;;;;;1.00;1.00;;;2.00;99.90;;;;;;5039599;28;20208;-78
2023/01/09 22:03:08;;;;;;;1.17;1.00;;;2.00;99.90;;;;;;5038275;28;20271;-79
2023/01/09 22:05:36;;;;;;;1.25;1.02;;;2.00;99.90;;;;;;5040423;28;20221;-79
2023/01/09 22:08:04;;;;;;;0.80;0.80;;;2.00;99.90;;;;;;5038326;28;20201;-78
2023/01/09 22:10:31;;;;;;;0.70;0.70;;;2.00;99.90;;;;;;5040898;28;20309;-78
2023/01/09 22:13:16;;;;;;;1.35;1.25;;;2.00;99.90;;;;;;5040971;28;20209;-79
2023/01/09 22:15:46;;;;;;;1.27;1.27;;;2.00;99.90;;;;;;5040300;28;20220;-78
2023/01/09 22:18:12;;;;;;;1.67;1.58;;;2.10;99.90;;;;;;5044987;28;20211;-79
2023/01/09 22:20:39;;;;;;;1.58;1.48;;;2.10;99.90;;;;;;5042220;28;20212;-79
2023/01/09 22:23:07;;;;;;;1.70;1.60;;;2.10;99.90;;;;;;5038048;28;20205;-79
2023/01/09 22:25:36;;;;;;;3.80;3.03;;;2.10;99.90;;;;;;5037459;28;20236;-78
2023/01/09 22:28:03;;;;;;;3.67;2.92;;;2.10;99.90;;;;;;5038068;28;20201;-78
2023/01/09 22:30:30;;;;;;;2.55;2.33;;;2.10;99.90;;;;;;5046929;28;20645;-78
2023/01/09 22:32:57;;;;;;;3.90;1.85;;;2.10;99.90;;;;;;5054428;28;20204;-77
2023/01/09 22:35:24;;;;;;;1.45;1.35;;;2.10;99.90;;;;;;5060276;28;20240;-79
2023/01/09 22:37:51;;;;;;;6.22;1.13;;;2.10;99.90;;;;;;5060282;28;20173;-79
2023/01/09 22:40:19;;;;;;;1.38;1.00;;;2.10;99.90;;;;;;5059544;28;20181;-77
2023/01/09 22:42:46;;;;;;;1.35;1.25;;;2.20;99.90;;;;;;5047586;28;20212;-78
2023/01/09 22:45:12;;;;;;;1.00;1.00;;;2.20;99.90;;;;;;5042644;28;20225;-80
2023/01/09 22:47:39;;;;;;;1.30;1.20;;;2.20;99.90;;;;;;5038648;28;20233;-79
2023/01/09 22:50:07;;;;;;;2.60;1.15;;;2.20;99.90;;;;;;5041879;28;20205;-80
2023/01/09 22:52:34;;;;;;;1.30;1.17;;;2.20;99.90;;;;;;5042719;28;20205;-78
2023/01/09 22:55:00;;;;;;;1.23;1.00;;;2.20;99.90;;;;;;5042911;28;20217;-79
2023/01/09 22:57:29;;;;;;;1.10;0.93;;;2.20;99.90;;;;;;5042868;28;20194;-79
2023/01/09 22:59:55;;;;;;;2.05;1.13;;;2.20;99.90;;;;;;5039553;28;20197;-79
2023/01/09 23:02:22;;;;;;;2.38;1.40;;;2.20;99.90;;;;;;5039641;28;20570;-79
2023/01/09 23:04:49;;;;;;;4.30;1.23;;;2.20;99.90;;;;;;5037453;28;20224;-79
2023/01/09 23:07:16;;;;;;;2.28;1.15;;;2.20;99.90;;;;;;5038301;28;20308;-79
2023/01/09 23:09:42;;;;;;;1.75;1.10;;;2.30;99.90;;;;;;5040538;28;20213;-79
2023/01/09 23:12:09;;;;;;;1.55;1.10;;;2.30;99.90;;;;;;5040646;28;20607;-79
2023/01/09 23:14:38;;;;;;;1.13;1.05;;;2.30;99.90;;;;;;5040799;28;20244;-78
2023/01/09 23:17:06;;;;;;;1.42;0.93;;;2.30;99.90;;;;;;5041082;28;20204;-78
2023/01/09 23:19:35;;;;;;;1.33;1.27;;;2.30;99.90;;;;;;5038636;28;20198;-79
